createdAt,value
2018-03-27T00:01:13.123Z,101483.90
2018-03-27T00:03:41.432Z,101480.14
2018-03-27T00:06:09.787Z,101494.97
2018-03-27T00:08:38.124Z,101491.91
2018-03-27T00:11:06.433Z,101487.91
2018-03-27T00:13:35.055Z,101477.19
2018-03-27T00:16:03.431Z,101477.38
2018-03-27T00:18:32.528Z,101474.56
2018-03-27T00:21:01.769Z,101478.55
2018-03-27T00:23:30.437Z,101481.83
2018-03-27T00:25:59.503Z,101477.48
2018-03-27T00:28:45.528Z,101482.36
2018-03-27T00:31:31.455Z,101476.10
2018-03-27T00:34:17.365Z,101478.97
2018-03-27T00:37:03.259Z,101477.84
2018-03-27T00:39:49.337Z,101475.67
2018-03-27T00:45:33.181Z,101477.17
2018-03-27T00:48:01.566Z,101471.91
2018-03-27T00:50:29.877Z,101472.52
2018-03-27T00:52:58.218Z,101473.82
2018-03-27T00:55:26.570Z,101474.48
2018-03-27T00:57:54.893Z,101479.17
2018-03-27T01:00:23.620Z,101474.37
2018-03-27T01:02:51.937Z,101473.13
2018-03-27T01:05:20.231Z,101488.50
2018-03-27T01:07:48.728Z,101480.75
2018-03-27T01:10:17.049Z,101480.09
2018-03-27T01:12:46.139Z,101485.45
2018-03-27T01:15:15.487Z,101482.24
2018-03-27T01:17:43.838Z,101477.87
2018-03-27T01:20:12.180Z,101462.92
2018-03-27T01:22:40.591Z,101470.50
2018-03-27T01:25:09.022Z,101474.86
2018-03-27T01:27:37.414Z,101474.59
2018-03-27T01:30:05.793Z,101465.75
2018-03-27T01:32:34.905Z,101476.28
2018-03-27T01:35:04.001Z,101472.66
2018-03-27T01:37:32.380Z,101473.41
2018-03-27T01:40:00.725Z,101470.36
2018-03-27T01:42:29.075Z,101467.55
2018-03-27T01:44:57.820Z,101467.56
2018-03-27T01:47:26.196Z,101464.45
2018-03-27T01:49:55.638Z,101458.25
2018-03-27T01:52:24.018Z,101461.30
2018-03-27T01:54:52.351Z,101464.48
2018-03-27T01:57:21.451Z,101460.67
2018-03-27T01:59:49.797Z,101459.51
2018-03-27T02:02:18.136Z,101457.28
2018-03-27T02:04:46.460Z,101453.56
2018-03-27T02:07:14.996Z,101452.94
2018-03-27T02:09:43.305Z,101452.66
2018-03-27T02:12:18.000Z,101450.17
2018-03-27T02:14:51.892Z,101462.20
2018-03-27T02:17:25.716Z,101456.59
2018-03-27T02:19:59.515Z,101451.97
2018-03-27T02:22:28.178Z,101459.54
2018-03-27T02:24:56.519Z,101456.55
2018-03-27T02:27:24.842Z,101452.53
2018-03-27T02:29:53.985Z,101444.03
2018-03-27T02:32:22.433Z,101448.16
2018-03-27T02:34:50.798Z,101449.34
2018-03-27T02:37:19.191Z,101449.12
2018-03-27T02:39:47.545Z,101446.13
2018-03-27T02:42:15.943Z,101446.23
2018-03-27T02:44:45.142Z,101446.87
2018-03-27T02:47:14.561Z,101454.49
2018-03-27T02:49:42.938Z,101444.36
2018-03-27T02:52:11.313Z,101443.66
2018-03-27T02:54:39.696Z,101442.09
2018-03-27T02:57:08.015Z,101446.70
2018-03-27T02:59:36.401Z,101443.80
2018-03-27T03:02:04.769Z,101447.30
2018-03-27T03:04:33.176Z,101442.05
2018-03-27T03:07:01.670Z,101444.29
2018-03-27T03:09:30.782Z,101444.31
2018-03-27T03:11:59.190Z,101443.11
2018-03-27T03:14:27.562Z,101442.52
2018-03-27T03:16:55.921Z,101434.17
2018-03-27T03:19:25.003Z,101441.74
2018-03-27T03:21:54.159Z,101445.44
2018-03-27T03:24:22.499Z,101443.22
2018-03-27T03:26:50.813Z,101440.23
2018-03-27T03:29:19.673Z,101438.60
2018-03-27T03:31:48.011Z,101440.53
2018-03-27T03:34:16.365Z,101436.98
2018-03-27T03:36:44.736Z,101446.28
2018-03-27T03:39:13.031Z,101441.33
2018-03-27T03:41:41.358Z,101447.45
2018-03-27T03:44:09.741Z,101446.52
2018-03-27T03:46:38.125Z,101442.64
2018-03-27T03:49:06.457Z,101441.66
2018-03-27T03:51:35.209Z,101442.48
2018-03-27T03:54:03.563Z,101438.13
2018-03-27T03:56:31.898Z,101434.52
2018-03-27T03:59:00.314Z,101436.52
2018-03-27T04:01:28.656Z,101438.00
2018-03-27T04:03:57.000Z,101427.69
2018-03-27T04:06:25.418Z,101435.01
2018-03-27T04:08:53.728Z,101437.05
2018-03-27T04:11:22.124Z,101432.94
2018-03-27T04:13:50.601Z,101423.27
2018-03-27T04:16:18.936Z,101419.20
2018-03-27T04:18:47.279Z,101421.88
2018-03-27T04:21:15.611Z,101419.95
2018-03-27T04:23:44.694Z,101420.75
2018-03-27T04:26:13.051Z,101414.05
2018-03-27T04:28:41.413Z,101412.01
2018-03-27T04:31:09.967Z,101419.63
2018-03-27T04:33:39.062Z,101417.97
2018-03-27T04:36:08.244Z,101414.85
2018-03-27T04:38:36.594Z,101425.00
2018-03-27T04:41:04.912Z,101418.88
2018-03-27T04:43:34.044Z,101423.28
2018-03-27T04:46:02.372Z,101423.61
2018-03-27T04:48:30.665Z,101422.64
2018-03-27T04:50:59.820Z,101419.41
2018-03-27T04:53:28.148Z,101421.62
2018-03-27T04:55:57.287Z,101423.27
2018-03-27T04:58:25.770Z,101418.11
2018-03-27T05:00:54.181Z,101426.47
2018-03-27T05:03:23.321Z,101426.44
2018-03-27T05:05:51.971Z,101424.16
2018-03-27T05:08:21.063Z,101423.92
2018-03-27T05:10:49.419Z,101430.38
2018-03-27T05:13:17.908Z,101429.75
2018-03-27T05:15:46.230Z,101427.05
2018-03-27T05:18:14.620Z,101429.95
2018-03-27T05:20:43.165Z,101437.00
2018-03-27T05:23:11.632Z,101427.81
2018-03-27T05:25:40.102Z,101423.78
2018-03-27T05:28:08.592Z,101426.53
2018-03-27T05:30:36.951Z,101420.55
2018-03-27T05:33:05.343Z,101423.38
2018-03-27T05:35:33.822Z,101422.41
2018-03-27T05:38:02.154Z,101423.38
2018-03-27T05:40:30.492Z,101420.58
2018-03-27T05:42:59.306Z,101412.11
2018-03-27T05:45:27.645Z,101415.86
2018-03-27T05:47:56.103Z,101421.58
2018-03-27T05:50:24.452Z,101416.16
2018-03-27T05:52:53.575Z,101427.36
2018-03-27T05:55:21.919Z,101430.63
2018-03-27T05:57:50.282Z,101429.47
2018-03-27T06:00:18.578Z,101425.96
2018-03-27T06:02:47.681Z,101419.98
2018-03-27T06:05:16.453Z,101423.75
2018-03-27T06:07:44.795Z,101418.25
2018-03-27T06:10:13.929Z,101423.71
2018-03-27T06:12:43.054Z,101415.51
2018-03-27T06:15:11.357Z,101420.85
2018-03-27T06:17:39.690Z,101416.16
2018-03-27T06:20:08.078Z,101419.82
2018-03-27T06:22:37.148Z,101406.95
2018-03-27T06:25:05.496Z,101407.59
2018-03-27T06:27:34.953Z,101411.22
2018-03-27T06:30:03.339Z,101415.05
2018-03-27T06:32:31.706Z,101417.81
2018-03-27T06:35:00.848Z,101421.41
2018-03-27T06:37:29.202Z,101419.33
2018-03-27T06:39:57.617Z,101419.39
2018-03-27T06:42:26.018Z,101418.78
2018-03-27T06:44:54.365Z,101416.87
2018-03-27T06:47:22.681Z,101425.08
2018-03-27T06:49:51.154Z,101420.23
2018-03-27T06:52:19.496Z,101425.37
2018-03-27T06:54:47.872Z,101420.82
2018-03-27T06:57:16.205Z,101417.97
2018-03-27T06:59:44.561Z,101425.33
2018-03-27T07:02:12.877Z,101418.45
2018-03-27T07:04:42.101Z,101411.52
2018-03-27T07:07:10.419Z,101419.41
2018-03-27T07:09:38.790Z,101422.39
2018-03-27T07:12:07.367Z,101414.92
2018-03-27T07:14:35.776Z,101416.81
2018-03-27T07:17:04.201Z,101418.89
2018-03-27T07:19:32.579Z,101424.28
2018-03-27T07:22:00.936Z,101412.99
2018-03-27T07:24:29.266Z,101412.83
2018-03-27T07:26:57.754Z,101413.07
2018-03-27T07:29:26.188Z,101405.91
2018-03-27T07:31:54.573Z,101411.67
2018-03-27T07:34:23.220Z,101413.59
2018-03-27T07:36:51.587Z,101407.14
2018-03-27T07:39:20.035Z,101408.02
2018-03-27T07:41:48.393Z,101402.08
2018-03-27T07:44:16.738Z,101410.11
2018-03-27T07:46:45.104Z,101405.08
2018-03-27T07:49:13.503Z,101400.38
2018-03-27T07:51:41.876Z,101404.45
2018-03-27T07:54:10.229Z,101403.01
2018-03-27T07:56:38.670Z,101398.83
2018-03-27T07:59:07.795Z,101399.13
2018-03-27T08:01:36.172Z,101392.25
2018-03-27T08:04:04.518Z,101401.72
2018-03-27T08:06:32.848Z,101396.84
2018-03-27T08:09:01.198Z,101394.38
2018-03-27T08:11:29.552Z,101394.05
2018-03-27T08:13:58.653Z,101385.53
2018-03-27T08:16:26.985Z,101396.84
2018-03-27T08:18:55.713Z,101394.58
2018-03-27T08:21:24.043Z,101390.30
2018-03-27T08:23:53.159Z,101395.94
2018-03-27T08:26:22.273Z,101391.91
2018-03-27T08:28:51.369Z,101390.35
2018-03-27T08:31:19.723Z,101389.34
2018-03-27T08:33:48.125Z,101389.59
2018-03-27T08:36:17.247Z,101383.25
2018-03-27T08:38:45.636Z,101382.30
2018-03-27T08:41:14.733Z,101381.47
2018-03-27T08:43:43.074Z,101378.73
2018-03-27T08:46:11.416Z,101384.25
2018-03-27T08:48:39.817Z,101377.78
2018-03-27T08:51:08.173Z,101377.27
2018-03-27T08:53:36.548Z,101377.34
2018-03-27T08:56:04.951Z,101375.84
2018-03-27T08:58:33.322Z,101379.33
2018-03-27T09:01:01.655Z,101377.72
2018-03-27T09:03:30.448Z,101377.51
2018-03-27T09:05:58.792Z,101370.08
2018-03-27T09:08:27.136Z,101368.44
2018-03-27T09:10:55.513Z,101368.44
2018-03-27T09:13:24.636Z,101360.17
2018-03-27T09:15:52.983Z,101364.86
2018-03-27T09:18:21.357Z,101358.77
2018-03-27T09:20:49.744Z,101355.02
2018-03-27T09:23:18.140Z,101359.41
2018-03-27T09:25:46.530Z,101353.16
2018-03-27T09:28:14.877Z,101351.56
2018-03-27T09:30:43.240Z,101347.14
2018-03-27T09:33:11.621Z,101349.11
2018-03-27T09:35:40.044Z,101339.95
2018-03-27T09:38:08.570Z,101341.91
2018-03-27T09:40:37.002Z,101336.64
2018-03-27T09:43:05.313Z,101334.85
2018-03-27T09:45:33.682Z,101330.09
2018-03-27T09:48:02.500Z,101327.25
2018-03-27T09:50:30.894Z,101329.77
2018-03-27T09:52:59.235Z,101327.72
2018-03-27T09:55:27.591Z,101323.50
2018-03-27T09:57:55.952Z,101317.34
2018-03-27T10:00:29.781Z,101314.02
2018-03-27T10:02:58.131Z,101307.52
2018-03-27T10:05:26.491Z,101300.16
2018-03-27T10:07:55.819Z,101299.45
2018-03-27T10:10:24.194Z,101298.55
2018-03-27T10:12:52.586Z,101297.28
2018-03-27T10:15:21.004Z,101299.55
2018-03-27T10:17:50.113Z,101296.53
2018-03-27T10:20:19.186Z,101298.21
2018-03-27T10:22:47.568Z,101295.38
2018-03-27T10:25:15.977Z,101287.44
2018-03-27T10:27:44.409Z,101285.09
2018-03-27T10:30:13.053Z,101280.85
2018-03-27T10:32:41.376Z,101281.59
2018-03-27T10:35:09.712Z,101270.56
2018-03-27T10:37:38.139Z,101265.40
2018-03-27T10:40:06.515Z,101262.30
2018-03-27T10:42:34.827Z,101265.78
2018-03-27T10:45:03.972Z,101259.72
2018-03-27T10:47:32.300Z,101265.47
2018-03-27T10:50:01.381Z,101262.47
2018-03-27T10:52:30.137Z,101257.48
2018-03-27T10:54:58.476Z,101253.34
2018-03-27T10:57:27.574Z,101241.23
2018-03-27T10:59:55.974Z,101234.20
2018-03-27T11:02:24.314Z,101228.24
2018-03-27T11:04:52.630Z,101242.84
2018-03-27T11:07:21.003Z,101237.94
2018-03-27T11:09:49.400Z,101230.52
2018-03-27T11:12:17.736Z,101224.19
2018-03-27T11:14:47.586Z,101223.77
2018-03-27T11:17:15.972Z,101224.19
2018-03-27T11:19:44.309Z,101221.43
2018-03-27T11:22:12.693Z,101217.44
2018-03-27T11:24:41.773Z,101223.70
2018-03-27T11:27:10.912Z,101227.91
2018-03-27T11:29:39.300Z,101224.64
2018-03-27T11:32:07.693Z,101219.00
2018-03-27T11:34:36.072Z,101202.59
2018-03-27T11:37:04.493Z,101212.07
2018-03-27T11:39:32.820Z,101206.36
2018-03-27T11:42:01.155Z,101207.28
2018-03-27T11:44:30.298Z,101213.06
2018-03-27T11:46:58.637Z,101209.77
2018-03-27T11:49:27.749Z,101217.64
2018-03-27T11:51:56.196Z,101212.02
2018-03-27T11:54:24.494Z,101212.76
2018-03-27T11:56:52.795Z,101210.30
2018-03-27T11:59:21.451Z,101201.61
2018-03-27T12:01:49.811Z,101211.81
2018-03-27T12:04:18.193Z,101214.12
2018-03-27T12:06:46.548Z,101209.91
2018-03-27T12:09:14.861Z,101207.67
2018-03-27T12:11:43.990Z,101200.20
2018-03-27T12:14:12.334Z,101203.13
2018-03-27T12:16:41.426Z,101191.33
2018-03-27T12:19:10.525Z,101192.25
2018-03-27T12:21:38.980Z,101185.30
2018-03-27T12:24:07.328Z,101174.08
2018-03-27T12:26:35.665Z,101165.74
2018-03-27T12:29:04.769Z,101170.34
2018-03-27T12:31:33.848Z,101162.89
2018-03-27T12:34:02.207Z,101156.86
2018-03-27T12:36:30.582Z,101150.59
2018-03-27T12:38:58.945Z,101149.94
2018-03-27T12:41:27.272Z,101143.16
2018-03-27T12:43:56.176Z,101141.93
2018-03-27T12:46:25.293Z,101133.52
2018-03-27T12:48:53.675Z,101130.08
2018-03-27T12:51:22.032Z,101129.98
2018-03-27T12:53:51.175Z,101126.66
2018-03-27T12:56:19.545Z,101118.89
2018-03-27T12:58:47.967Z,101117.38
2018-03-27T13:01:17.088Z,101116.62
2018-03-27T13:03:46.458Z,101109.30
2018-03-27T13:06:15.101Z,101105.89
2018-03-27T13:08:43.434Z,101114.63
2018-03-27T13:11:11.752Z,101101.68
2018-03-27T13:13:40.123Z,101090.02
2018-03-27T13:16:08.498Z,101087.57
2018-03-27T13:18:36.884Z,101086.27
2018-03-27T13:21:05.303Z,101090.55
2018-03-27T13:23:33.658Z,101084.09
2018-03-27T13:26:02.012Z,101087.16
2018-03-27T13:28:30.657Z,101078.94
2018-03-27T13:30:59.022Z,101065.55
2018-03-27T13:33:27.363Z,101074.27
2018-03-27T13:35:55.776Z,101075.34
2018-03-27T13:38:24.117Z,101079.11
2018-03-27T13:40:52.447Z,101070.13
2018-03-27T13:43:20.829Z,101073.23
2018-03-27T13:45:49.949Z,101066.80
2018-03-27T13:48:18.309Z,101063.11
2018-03-27T13:50:47.040Z,101072.97
2018-03-27T13:53:15.414Z,101069.34
2018-03-27T13:55:43.753Z,101066.70
2018-03-27T13:58:12.146Z,101055.03
2018-03-27T14:00:41.267Z,101049.20
2018-03-27T14:03:10.522Z,101051.10
2018-03-27T14:05:38.876Z,101046.64
2018-03-27T14:08:07.292Z,101044.64
2018-03-27T14:10:35.648Z,101042.62
2018-03-27T14:13:04.219Z,101046.01
2018-03-27T14:15:32.568Z,101048.17
2018-03-27T14:18:00.913Z,101042.73
2018-03-27T14:20:29.308Z,101037.21
2018-03-27T14:22:58.404Z,101026.69
2018-03-27T14:25:27.579Z,101030.22
2018-03-27T14:27:55.985Z,101021.36
2018-03-27T14:30:25.100Z,101017.52
2018-03-27T14:32:53.465Z,101016.95
2018-03-27T14:35:21.916Z,101019.32
2018-03-27T14:37:50.261Z,101020.94
2018-03-27T14:40:18.598Z,101027.60
2018-03-27T14:42:47.935Z,101022.80
2018-03-27T14:45:16.305Z,101024.48
2018-03-27T14:47:44.641Z,101019.30
2018-03-27T14:50:13.026Z,101012.93
2018-03-27T14:52:41.442Z,101007.33
2018-03-27T14:55:09.836Z,101004.19
2018-03-27T14:57:38.337Z,101003.30
2018-03-27T15:00:06.721Z,100990.41
2018-03-27T15:02:35.160Z,100984.66
2018-03-27T15:05:03.597Z,100997.52
2018-03-27T15:07:31.961Z,100988.08
2018-03-27T15:10:00.326Z,100996.68
2018-03-27T15:12:28.712Z,100989.22
2018-03-27T15:14:57.051Z,100984.48
2018-03-27T15:17:25.429Z,100986.80
2018-03-27T15:19:54.048Z,100981.03
2018-03-27T15:22:23.140Z,100972.34
2018-03-27T15:24:51.528Z,100982.69
2018-03-27T15:27:19.903Z,100984.23
2018-03-27T15:29:48.247Z,100972.68
2018-03-27T15:32:16.598Z,100976.94
2018-03-27T15:34:45.052Z,100968.02
2018-03-27T15:37:13.479Z,100956.77
2018-03-27T15:39:41.941Z,100962.69
2018-03-27T15:42:10.608Z,100967.36
2018-03-27T15:44:38.997Z,100952.22
2018-03-27T15:47:07.329Z,100961.03
2018-03-27T15:49:35.780Z,100954.11
2018-03-27T15:52:04.254Z,100945.53
2018-03-27T15:54:32.600Z,100950.44
2018-03-27T15:57:00.981Z,100933.85
2018-03-27T15:59:29.438Z,100941.61
2018-03-27T16:01:57.852Z,100934.67
2018-03-27T16:04:26.337Z,100936.02
2018-03-27T16:06:54.720Z,100932.93
2018-03-27T16:09:23.154Z,100924.22
2018-03-27T16:11:51.520Z,100925.33
2018-03-27T16:14:19.883Z,100918.02
2018-03-27T16:16:49.709Z,100916.56
2018-03-27T16:19:18.132Z,100917.04
2018-03-27T16:21:46.470Z,100911.45
2018-03-27T16:24:14.846Z,100912.55
2018-03-27T16:26:43.318Z,100909.48
2018-03-27T16:29:12.440Z,100909.23
2018-03-27T16:31:40.873Z,100907.28
2018-03-27T16:34:09.326Z,100909.58
2018-03-27T16:36:37.648Z,100898.89
2018-03-27T16:39:05.990Z,100894.14
2018-03-27T16:41:34.366Z,100901.52
2018-03-27T16:44:02.723Z,100892.33
2018-03-27T16:46:31.056Z,100893.95
2018-03-27T16:48:59.665Z,100895.72
2018-03-27T16:51:29.209Z,100897.41
2018-03-27T16:53:57.559Z,100900.40
2018-03-27T16:56:25.902Z,100900.92
2018-03-27T16:58:54.298Z,100892.85
2018-03-27T17:01:22.667Z,100896.56
2018-03-27T17:03:51.044Z,100897.58
2018-03-27T17:06:19.393Z,100901.97
2018-03-27T17:08:47.728Z,100898.84
2018-03-27T17:11:17.061Z,100885.69
2018-03-27T17:13:45.410Z,100885.83
2018-03-27T17:16:14.651Z,100880.69
2018-03-27T17:18:43.030Z,100882.45
2018-03-27T17:21:11.361Z,100878.28
2018-03-27T17:23:39.681Z,100877.10
2018-03-27T17:26:08.014Z,100879.96
2018-03-27T17:28:36.334Z,100879.50
2018-03-27T17:31:04.707Z,100882.19
2018-03-27T17:33:33.552Z,100885.44
2018-03-27T17:36:02.667Z,100884.21
2018-03-27T17:38:31.788Z,100884.64
2018-03-27T17:41:00.205Z,100890.38
2018-03-27T17:43:28.551Z,100895.65
2018-03-27T17:45:56.883Z,100889.07
2018-03-27T17:48:25.254Z,100889.38
2018-03-27T17:50:53.605Z,100890.71
2018-03-27T17:53:22.520Z,100890.73
2018-03-27T17:55:51.034Z,100890.25
2018-03-27T17:58:19.405Z,100892.77
2018-03-27T18:00:48.487Z,100893.81
2018-03-27T18:03:18.090Z,100895.59
2018-03-27T18:05:46.445Z,100898.06
2018-03-27T18:08:15.586Z,100890.72
2018-03-27T18:10:44.733Z,100890.13
2018-03-27T18:13:13.095Z,100894.88
2018-03-27T18:15:41.437Z,100885.91
2018-03-27T18:18:10.664Z,100888.45
2018-03-27T18:20:39.018Z,100893.78
2018-03-27T18:23:08.138Z,100885.69
2018-03-27T18:25:36.545Z,100885.29
2018-03-27T18:28:04.893Z,100880.94
2018-03-27T18:30:33.236Z,100879.30
2018-03-27T18:33:01.574Z,100883.70
2018-03-27T18:35:30.948Z,100883.27
2018-03-27T18:38:00.548Z,100881.26
2018-03-27T18:40:28.954Z,100882.14
2018-03-27T18:42:57.273Z,100886.44
2018-03-27T18:45:25.638Z,100879.98
2018-03-27T18:47:54.069Z,100880.14
2018-03-27T18:50:22.447Z,100878.44
2018-03-27T18:52:50.838Z,100876.42
2018-03-27T18:55:19.798Z,100878.63
2018-03-27T18:57:48.135Z,100876.05
2018-03-27T19:00:16.492Z,100871.91
2018-03-27T19:02:45.159Z,100873.56
2018-03-27T19:05:13.514Z,100871.55
2018-03-27T19:07:41.864Z,100872.74
2018-03-27T19:12:44.599Z,100860.63
2018-03-27T19:15:12.957Z,100866.96
2018-03-27T19:17:41.314Z,100867.55
2018-03-27T19:20:09.646Z,100856.98
2018-03-27T19:22:38.263Z,100860.69
2018-03-27T19:25:06.657Z,100863.63
2018-03-27T19:27:35.017Z,100849.38
2018-03-27T19:30:03.380Z,100858.44
2018-03-27T19:32:31.766Z,100853.96
2018-03-27T19:35:00.091Z,100854.95
2018-03-27T19:37:28.429Z,100849.77
2018-03-27T19:39:56.792Z,100850.14
2018-03-27T19:42:25.164Z,100848.14
2018-03-27T19:44:53.732Z,100854.95
2018-03-27T19:47:22.822Z,100853.96
2018-03-27T19:49:51.187Z,100853.24
2018-03-27T19:52:19.588Z,100855.06
2018-03-27T19:54:47.921Z,100851.59
2018-03-27T19:57:16.269Z,100848.92
2018-03-27T19:59:44.796Z,100847.16
2018-03-27T20:02:13.938Z,100835.64
2018-03-27T20:04:42.345Z,100835.55
2018-03-27T20:07:11.090Z,100844.58
2018-03-27T20:09:39.456Z,100840.09
2018-03-27T20:12:07.789Z,100831.30
2018-03-27T20:14:36.184Z,100830.61
2018-03-27T20:17:04.613Z,100840.18
2018-03-27T20:19:32.972Z,100837.69
2018-03-27T20:22:01.393Z,100832.08
2018-03-27T20:24:30.574Z,100832.85
2018-03-27T20:26:58.942Z,100828.62
2018-03-27T20:29:27.493Z,100823.75
2018-03-27T20:31:55.887Z,100820.30
2018-03-27T20:34:24.370Z,100825.73
2018-03-27T20:36:52.760Z,100816.45
2018-03-27T20:39:21.121Z,100814.05
2018-03-27T20:41:49.451Z,100812.73
2018-03-27T20:44:17.878Z,100809.83
2018-03-27T20:46:46.294Z,100814.35
2018-03-27T20:49:14.733Z,100805.66
2018-03-27T20:51:43.232Z,100800.88
2018-03-27T20:54:11.617Z,100795.95
2018-03-27T20:56:39.983Z,100801.67
2018-03-27T20:59:08.354Z,100794.48
2018-03-27T21:01:36.680Z,100786.98
2018-03-27T21:04:05.049Z,100797.52
2018-03-27T21:06:34.205Z,100791.78
2018-03-27T21:09:02.590Z,100779.87
2018-03-27T21:11:30.964Z,100780.83
2018-03-27T21:13:59.561Z,100772.45
2018-03-27T21:16:27.897Z,100777.02
2018-03-27T21:18:56.228Z,100775.55
2018-03-27T21:21:24.579Z,100773.82
2018-03-27T21:23:52.930Z,100777.99
2018-03-27T21:26:21.998Z,100763.80
2018-03-27T21:28:51.149Z,100771.38
2018-03-27T21:31:19.507Z,100768.64
2018-03-27T21:33:47.852Z,100764.42
2018-03-27T21:36:16.456Z,100767.27
2018-03-27T21:38:45.682Z,100764.22
2018-03-27T21:41:14.002Z,100762.14
2018-03-27T21:43:42.347Z,100766.11
2018-03-27T21:46:10.690Z,100768.42
2018-03-27T21:48:39.002Z,100767.48
2018-03-27T21:51:07.349Z,100772.72
2018-03-27T21:53:36.427Z,100768.48
2018-03-27T21:56:05.676Z,100767.96
2018-03-27T21:58:34.451Z,100770.34
2018-03-27T22:01:02.836Z,100765.67
2018-03-27T22:03:40.539Z,100761.42
2018-03-27T22:06:08.913Z,100764.19
2018-03-27T22:08:37.250Z,100764.00
2018-03-27T22:11:05.674Z,100761.00
2018-03-27T22:13:34.047Z,100747.88
2018-03-27T22:16:02.409Z,100759.13
2018-03-27T22:18:31.043Z,100750.28
2018-03-27T22:20:59.378Z,100747.44
2018-03-27T22:23:27.770Z,100743.70
2018-03-27T22:25:56.133Z,100738.73
2018-03-27T22:28:25.244Z,100734.55
2018-03-27T22:30:53.592Z,100741.26
2018-03-27T22:33:22.707Z,100737.69
2018-03-27T22:35:51.047Z,100733.56
2018-03-27T22:38:19.400Z,100737.89
2018-03-27T22:40:47.944Z,100728.52
2018-03-27T22:43:16.305Z,100729.27
2018-03-27T22:45:45.421Z,100734.11
2018-03-27T22:48:13.798Z,100717.19
2018-03-27T22:50:42.890Z,100715.61
2018-03-27T22:53:11.236Z,100719.91
2018-03-27T22:55:39.612Z,100712.52
2018-03-27T22:58:07.961Z,100709.53
2018-03-27T23:00:36.301Z,100710.11
2018-03-27T23:03:05.762Z,100703.25
2018-03-27T23:05:34.090Z,100703.16
2018-03-27T23:08:02.474Z,100696.97
2018-03-27T23:10:30.839Z,100696.19
2018-03-27T23:12:59.938Z,100693.80
2018-03-27T23:15:29.045Z,100698.34
2018-03-27T23:17:57.411Z,100683.86
2018-03-27T23:20:25.764Z,100684.30
2018-03-27T23:22:54.095Z,100687.05
2018-03-27T23:25:23.296Z,100687.11
2018-03-27T23:27:51.645Z,100689.20
2018-03-27T23:30:19.977Z,100693.58
2018-03-27T23:32:48.322Z,100681.80
2018-03-27T23:35:16.679Z,100674.17
2018-03-27T23:37:45.811Z,100668.98
2018-03-27T23:40:14.204Z,100661.56
2018-03-27T23:42:42.725Z,100661.45
2018-03-27T23:45:11.080Z,100664.83
2018-03-27T23:47:39.615Z,100663.97
2018-03-27T23:50:07.963Z,100657.52
2018-03-27T23:52:37.093Z,100650.89
2018-03-27T23:55:05.440Z,100648.86
2018-03-27T23:57:33.921Z,100653.86
